Aviation Digital Data Service (ADDS)

Output produced by METARs form (0100 UTC 22 September 2017)
found at http://www.aviationweather.gov/adds/metars/
 
RPLC 220000Z 08003KT 9000 SCT020 BKN100 27/25 Q1012 NOSIG RMK A2988
TAF RPLC 212300Z 2200/2306 04008KT 9999 SCT020 BKN100 TX32/2206Z TN25/2221Z 
     TEMPO 2200/2206 21008KT 8000 -TSRA FEW015CB SCT020 BKN100
       
RPVD 220000Z 36004KT 9999 SCT015 OVC080 27/25 Q1010 RMK A2983
TAF RPVD 212300Z 2200/2224 18006KT 9999 SCT015 BKN220 
     TEMPO 2200/2206 25007KT 8000 -SHRA SCT015 BKN080
       
RPMD 220000Z 02003KT 9999 FEW016 BKN090 BKN290 26/23 Q1012 RMK A2988
TAF RPMD 212300Z 2200/2224 03004KT 9999 FEW016 BKN290 
     TEMPO 2200/2206 03005KT 9000 -RA FEW016 BKN090 OVC290
       
RPLI 220000Z 11004KT 9999 FEW019 29/26 Q1009 NOSIG RMK A2980
TAF RPLI 212300Z 2200/2224 32006KT 9999 FEW019 SCT100 
     TEMPO 2200/2206 14004KT 8000 -SHRA FEW018CB SCT019 BKN100
       
RPVM 220000Z 23005KT 200V260 9999 SCT020 OVC100 28/24 Q1011 RMK A2985
TAF RPVM 212300Z 2200/2306 21004KT 9999 FEW020 BKN100 
     TEMPO 2200/2206 24007KT 8000 -TSRA SCT018CB OVC090 
     TEMPO 2206/2212 22008KT 8000 -TSRA SCT018CB OVC090
       
RPLB 220000Z VRB02KT 9999 FEW020 BKN300 29/25 Q1009 NOSIG RMK A2980
TAF RPLB 212300Z 2200/2224 21006KT 9999 FEW020 SCT080 BKN300 TX32/2206Z TN25/2222Z 
     TEMPO 2200/2206 VRB02KT 9000 -TSRA FEW018CB SCT020 BKN080
       
RPLC 220000Z 08003KT 9000 SCT020 BKN100 27/25 Q1012 NOSIG RMK A2988
TAF RPLC 212300Z 2200/2306 04008KT 9999 SCT020 BKN100 TX32/2206Z TN25/2221Z 
     TEMPO 2200/2206 21008KT 8000 -TSRA FEW015CB SCT020 BKN100
       
RPLI 220000Z 11004KT 9999 FEW019 29/26 Q1009 NOSIG RMK A2980
TAF RPLI 212300Z 2200/2224 32006KT 9999 FEW019 SCT100 
     TEMPO 2200/2206 14004KT 8000 -SHRA FEW018CB SCT019 BKN100
       
RPLL 220000Z VRB01KT 9999 FEW023 BKN100 30/28 Q1010 NOSIG RMK A2983
TAF RPLL 212300Z 2200/2306 23004KT 9999 FEW023 BKN100 TX33/2206Z TN26/2221Z 
     TEMPO 2200/2206 VRB02KT FEW025 SCT100 
     TEMPO 2206/2212 26008KT 8000 -TSRA FEW022CB SCT023 OVC090
       
RPMD 220000Z 02003KT 9999 FEW016 BKN090 BKN290 26/23 Q1012 RMK A2988
TAF RPMD 212300Z 2200/2224 03004KT 9999 FEW016 BKN290 
     TEMPO 2200/2206 03005KT 9000 -RA FEW016 BKN090 OVC290
       
RPMR 220000Z 00000KT 9999 FEW018 OVC080 26/24 Q1013 NOSIG RMK A2991
TAF RPMR 212300Z 2200/2224 24004KT 9999 SCT020 BKN080 
     TEMPO 2200/2206 14003KT 9000 -RA SCT020 OVC080
       
RPMZ 220000Z 27010KT 9999 SCT017CB FEW018 BKN100 27/23 Q1013 RMK A2991 CB ALL QDS
TAF RPMZ 212300Z 2200/2224 27004KT 9999 FEW018 BKN300 
     TEMPO 2206/2212 25004KT 9000 -RA FEW018 OVC100
       
RPVD 220000Z 36004KT 9999 SCT015 OVC080 27/25 Q1010 RMK A2983
TAF RPVD 212300Z 2200/2224 18006KT 9999 SCT015 BKN220 
     TEMPO 2200/2206 25007KT 8000 -SHRA SCT015 BKN080
       
RPVM 220000Z 23005KT 200V260 9999 SCT020 OVC100 28/24 Q1011 RMK A2985
TAF RPVM 212300Z 2200/2306 21004KT 9999 FEW020 BKN100 
     TEMPO 2200/2206 24007KT 8000 -TSRA SCT018CB OVC090 
     TEMPO 2206/2212 22008KT 8000 -TSRA SCT018CB OVC090
       
RPVP 220000Z 18001KT 9999 FEW017CB BKN080 OVC240 27/25 Q1010 NOSIG RMK A2983 CB W AND NE
TAF RPVP 212300Z 2200/2224 32004KT 9999 FEW019 BKN080 
     TEMPO 2200/2206 35004KT 9000 -SHRA SCT019 OVC080
       
RPLL 220000Z VRB01KT 9999 FEW023 BKN100 30/28 Q1010 NOSIG RMK A2983
TAF RPLL 212300Z 2200/2306 23004KT 9999 FEW023 BKN100 TX33/2206Z TN26/2221Z 
     TEMPO 2200/2206 VRB02KT FEW025 SCT100 
     TEMPO 2206/2212 26008KT 8000 -TSRA FEW022CB SCT023 OVC090
       
RPVP 220000Z 18001KT 9999 FEW017CB BKN080 OVC240 27/25 Q1010 NOSIG RMK A2983 CB W AND NE
TAF RPVP 212300Z 2200/2224 32004KT 9999 FEW019 BKN080 
     TEMPO 2200/2206 35004KT 9000 -SHRA SCT019 OVC080
       
RPLB 220000Z VRB02KT 9999 FEW020 BKN300 29/25 Q1009 NOSIG RMK A2980
TAF RPLB 212300Z 2200/2224 21006KT 9999 FEW020 SCT080 BKN300 TX32/2206Z TN25/2222Z 
     TEMPO 2200/2206 VRB02KT 9000 -TSRA FEW018CB SCT020 BKN080
       
RPMR 220000Z 00000KT 9999 FEW018 OVC080 26/24 Q1013 NOSIG RMK A2991
TAF RPMR 212300Z 2200/2224 24004KT 9999 SCT020 BKN080 
     TEMPO 2200/2206 14003KT 9000 -RA SCT020 OVC080
       
RPMZ 220000Z 27010KT 9999 SCT017CB FEW018 BKN100 27/23 Q1013 RMK A2991 CB ALL QDS
TAF RPMZ 212300Z 2200/2224 27004KT 9999 FEW018 BKN300 
     TEMPO 2206/2212 25004KT 9000 -RA FEW018 OVC100